createdAt,value
2018-11-23T00:00:18.636Z,3.50
2018-11-23T00:02:47.843Z,3.47
2018-11-23T00:05:16.536Z,3.47
2018-11-23T00:07:45.348Z,3.46
2018-11-23T00:10:16.079Z,3.45
2018-11-23T00:12:44.606Z,3.45
2018-11-23T00:15:14.467Z,3.45
2018-11-23T00:17:43.162Z,3.45
2018-11-23T00:20:16.184Z,3.45
2018-11-23T00:22:44.598Z,3.44
2018-11-23T00:25:18.030Z,3.41
2018-11-23T00:27:46.603Z,3.39
2018-11-23T00:30:18.672Z,3.34
2018-11-23T00:32:47.692Z,3.31
2018-11-23T00:35:18.200Z,3.28
2018-11-23T00:37:47.080Z,3.27
2018-11-23T00:40:21.165Z,3.25
2018-11-23T00:42:50.085Z,3.26
2018-11-23T00:45:18.930Z,3.23
2018-11-23T00:47:48.069Z,3.20
2018-11-23T00:50:18.085Z,3.19
2018-11-23T00:52:47.333Z,3.19
2018-11-23T00:55:16.908Z,3.15
2018-11-23T00:57:45.445Z,3.13
2018-11-23T01:00:16.517Z,3.12
2018-11-23T01:02:45.123Z,3.11
2018-11-23T01:05:15.375Z,3.13
2018-11-23T01:07:44.428Z,3.13
2018-11-23T01:10:15.174Z,3.12
2018-11-23T01:12:44.884Z,3.12
2018-11-23T01:15:13.528Z,3.15
2018-11-23T01:17:42.039Z,3.14
2018-11-23T01:20:16.206Z,3.11
2018-11-23T01:22:45.220Z,3.11
2018-11-23T01:25:15.275Z,3.09
2018-11-23T01:27:44.802Z,3.10
2018-11-23T01:30:21.831Z,3.10
2018-11-23T01:32:50.352Z,3.10
2018-11-23T01:35:18.892Z,3.09
2018-11-23T01:37:47.366Z,3.07
2018-11-23T01:40:20.431Z,3.03
2018-11-23T01:42:49.064Z,2.96
2018-11-23T01:45:18.395Z,2.88
2018-11-23T01:47:47.074Z,2.76
2018-11-23T01:50:20.048Z,2.67
2018-11-23T01:52:49.297Z,2.62
2018-11-23T01:55:18.459Z,2.58
2018-11-23T01:57:47.191Z,2.56
2018-11-23T02:00:17.552Z,2.56
2018-11-23T02:02:46.673Z,2.58
2018-11-23T02:05:15.281Z,2.59
2018-11-23T02:07:43.798Z,2.61
2018-11-23T02:10:13.968Z,2.60
2018-11-23T02:12:42.465Z,2.61
2018-11-23T02:15:16.619Z,2.62
2018-11-23T02:17:45.371Z,2.64
2018-11-23T02:20:15.087Z,2.65
2018-11-23T02:22:43.562Z,2.66
2018-11-23T02:25:12.062Z,2.67
2018-11-23T02:27:40.559Z,2.68
2018-11-23T02:30:16.613Z,2.70
2018-11-23T02:32:45.201Z,2.70
2018-11-23T02:35:14.343Z,2.70
2018-11-23T02:37:42.832Z,2.70
2018-11-23T02:40:12.763Z,2.71
2018-11-23T02:42:41.246Z,2.70
2018-11-23T02:45:14.041Z,2.70
2018-11-23T02:47:43.346Z,2.69
2018-11-23T02:50:11.866Z,2.68
2018-11-23T02:52:42.379Z,2.66
2018-11-23T02:55:12.016Z,2.65
2018-11-23T02:57:40.502Z,2.62
2018-11-23T03:00:16.418Z,2.60
2018-11-23T03:02:44.978Z,2.58
2018-11-23T03:05:17.000Z,2.55
2018-11-23T03:07:45.614Z,2.51
2018-11-23T03:10:15.117Z,2.39
2018-11-23T03:12:44.356Z,2.28
2018-11-23T03:15:15.092Z,2.22
2018-11-23T03:17:44.278Z,2.14
2018-11-23T03:20:14.675Z,2.08
2018-11-23T03:22:43.136Z,2.07
2018-11-23T03:25:12.366Z,2.07
2018-11-23T03:27:40.756Z,2.07
2018-11-23T03:30:15.315Z,2.09
2018-11-23T03:32:44.568Z,2.11
2018-11-23T03:35:13.185Z,2.12
2018-11-23T03:37:41.962Z,2.12
2018-11-23T03:40:10.551Z,2.13
2018-11-23T03:42:39.209Z,2.12
2018-11-23T03:45:10.209Z,2.13
2018-11-23T03:47:39.142Z,2.13
2018-11-23T03:50:09.203Z,2.14
2018-11-23T03:52:37.714Z,2.14
2018-11-23T03:55:06.299Z,2.12
2018-11-23T03:57:35.013Z,2.14
2018-11-23T04:00:16.880Z,2.12
2018-11-23T04:05:45.674Z,2.12
2018-11-23T04:08:14.265Z,2.10
2018-11-23T04:10:42.699Z,2.10
2018-11-23T04:13:11.181Z,2.11
2018-11-23T04:15:39.591Z,2.12
2018-11-23T04:18:08.059Z,2.11
2018-11-23T04:20:36.559Z,2.12
2018-11-23T04:23:05.181Z,2.13
2018-11-23T04:25:33.586Z,2.12
2018-11-23T04:28:02.060Z,2.12
2018-11-23T04:30:30.493Z,2.11
2018-11-23T04:32:59.090Z,2.05
2018-11-23T04:35:27.554Z,1.96
2018-11-23T04:37:55.979Z,1.88
2018-11-23T04:40:24.437Z,1.84
2018-11-23T04:42:52.846Z,1.84
2018-11-23T04:45:21.379Z,1.85
2018-11-23T04:47:49.849Z,1.86
2018-11-23T04:50:18.301Z,1.88
2018-11-23T04:52:46.733Z,1.92
2018-11-23T04:55:15.192Z,1.93
2018-11-23T05:00:55.289Z,1.87
2018-11-23T05:03:23.722Z,1.86
2018-11-23T05:05:52.334Z,1.89
2018-11-23T05:08:20.784Z,1.91
2018-11-23T05:10:49.196Z,1.94
2018-11-23T05:13:17.627Z,1.95
2018-11-23T05:15:46.388Z,1.97
2018-11-23T05:18:14.869Z,1.98
2018-11-23T05:20:43.469Z,2.01
2018-11-23T05:23:11.919Z,2.02
2018-11-23T05:25:40.378Z,2.03
2018-11-23T05:28:08.814Z,2.05
2018-11-23T05:30:37.274Z,2.05
2018-11-23T05:33:05.887Z,2.07
2018-11-23T05:35:34.357Z,2.07
2018-11-23T05:38:02.834Z,2.07
2018-11-23T05:40:31.295Z,2.08
2018-11-23T05:43:04.326Z,2.08
2018-11-23T05:45:28.225Z,2.10
2018-11-23T05:47:56.689Z,2.11
2018-11-23T05:50:25.694Z,2.13
2018-11-23T05:52:54.164Z,2.16
2018-11-23T05:55:22.672Z,2.18
2018-11-23T05:57:51.605Z,2.21
2018-11-23T06:00:22.339Z,2.21
2018-11-23T06:02:50.871Z,2.21
2018-11-23T06:05:19.365Z,2.21
2018-11-23T06:07:47.798Z,2.19
2018-11-23T06:10:17.557Z,2.22
2018-11-23T06:12:46.000Z,2.23
2018-11-23T06:15:17.240Z,2.25
2018-11-23T06:17:46.293Z,2.26
2018-11-23T06:20:17.279Z,2.27
2018-11-23T06:22:46.727Z,2.30
2018-11-23T06:25:21.624Z,2.31
2018-11-23T06:27:50.105Z,2.31
2018-11-23T06:30:18.600Z,2.32
2018-11-23T06:33:04.415Z,2.33
2018-11-23T06:35:32.876Z,2.34
2018-11-23T06:38:01.335Z,2.34
2018-11-23T06:40:30.870Z,2.36
2018-11-23T06:42:59.333Z,2.35
2018-11-23T06:45:28.104Z,2.37
2018-11-23T06:47:56.863Z,2.38
2018-11-23T06:50:25.392Z,2.40
2018-11-23T06:52:53.826Z,2.43
2018-11-23T06:55:22.230Z,2.45
2018-11-23T06:57:50.768Z,2.45
2018-11-23T07:00:19.237Z,2.45
2018-11-23T07:02:48.183Z,2.45
2018-11-23T07:05:16.647Z,2.47
2018-11-23T07:07:45.084Z,2.48
2018-11-23T07:10:13.658Z,2.52
2018-11-23T07:12:42.067Z,2.55
2018-11-23T07:15:11.863Z,2.57
2018-11-23T07:17:40.936Z,2.61
2018-11-23T07:20:12.366Z,2.63
2018-11-23T07:22:41.240Z,2.62
2018-11-23T07:25:11.596Z,2.61
2018-11-23T07:27:40.324Z,2.58
2018-11-23T07:30:13.688Z,2.58
2018-11-23T07:32:42.423Z,2.60
2018-11-23T07:35:11.183Z,2.61
2018-11-23T07:37:39.708Z,2.65
2018-11-23T07:40:26.999Z,2.70
2018-11-23T07:42:55.921Z,2.75
2018-11-23T07:45:24.430Z,2.81
2018-11-23T07:47:53.801Z,2.85
2018-11-23T07:50:22.353Z,2.93
2018-11-23T07:52:50.949Z,2.98
2018-11-23T07:55:19.387Z,3.05
2018-11-23T07:57:47.854Z,3.10
2018-11-23T08:00:22.686Z,3.17
2018-11-23T08:02:51.951Z,3.22
2018-11-23T08:05:21.580Z,3.27
2018-11-23T08:07:50.068Z,3.33
2018-11-23T08:10:18.982Z,3.36
2018-11-23T08:12:48.679Z,3.40
2018-11-23T08:15:23.157Z,3.44
2018-11-23T08:17:51.651Z,3.50
2018-11-23T08:20:21.237Z,3.54
2018-11-23T08:22:49.823Z,3.58
2018-11-23T08:25:19.644Z,3.62
2018-11-23T08:27:49.376Z,3.65
2018-11-23T08:30:20.422Z,3.68
2018-11-23T08:32:48.922Z,3.71
2018-11-23T08:35:17.411Z,3.75
2018-11-23T08:37:45.839Z,3.75
2018-11-23T08:40:19.944Z,3.79
2018-11-23T08:42:49.160Z,3.80
2018-11-23T08:45:22.687Z,3.81
2018-11-23T08:47:51.348Z,3.82
2018-11-23T08:50:22.718Z,3.84
2018-11-23T08:52:51.261Z,3.87
2018-11-23T08:55:20.205Z,3.89
2018-11-23T08:57:48.639Z,3.92
2018-11-23T09:00:22.004Z,3.96
2018-11-23T09:02:52.787Z,3.99
2018-11-23T09:05:21.463Z,4.02
2018-11-23T09:07:51.138Z,4.08
2018-11-23T09:10:21.944Z,4.12
2018-11-23T09:12:53.198Z,4.16
2018-11-23T09:15:21.946Z,4.20
2018-11-23T09:17:50.401Z,4.23
2018-11-23T09:20:19.232Z,4.27
2018-11-23T09:22:47.745Z,4.29
2018-11-23T09:25:17.726Z,4.32
2018-11-23T09:27:46.188Z,4.37
2018-11-23T09:30:19.035Z,4.39
2018-11-23T09:32:48.400Z,4.43
2018-11-23T09:35:17.012Z,4.49
2018-11-23T09:37:46.540Z,4.55
2018-11-23T09:40:17.305Z,4.58
2018-11-23T09:42:45.856Z,4.62
2018-11-23T09:45:17.057Z,4.66
2018-11-23T09:47:46.743Z,4.71
2018-11-23T09:50:17.492Z,4.72
2018-11-23T09:52:46.924Z,4.72
2018-11-23T09:55:15.605Z,4.66
2018-11-23T09:57:44.078Z,4.60
2018-11-23T10:00:17.316Z,4.58
2018-11-23T10:02:46.676Z,4.58
2018-11-23T10:05:15.848Z,4.59
2018-11-23T10:07:45.677Z,4.61
2018-11-23T10:10:15.076Z,4.64
2018-11-23T10:12:43.780Z,4.70
2018-11-23T10:15:18.404Z,4.78
2018-11-23T10:17:46.857Z,4.86
2018-11-23T10:20:17.506Z,4.96
2018-11-23T10:22:47.376Z,5.04
2018-11-23T10:25:17.349Z,5.12
2018-11-23T10:27:46.321Z,5.17
2018-11-23T10:30:18.591Z,5.22
2018-11-23T10:32:48.112Z,5.28
2018-11-23T10:35:16.581Z,5.33
2018-11-23T10:37:46.211Z,5.37
2018-11-23T10:40:16.786Z,5.43
2018-11-23T10:42:45.427Z,5.47
2018-11-23T10:45:19.535Z,5.54
2018-11-23T10:47:50.773Z,5.57
2018-11-23T10:50:24.488Z,5.59
2018-11-23T10:52:53.221Z,5.62
2018-11-23T10:55:26.038Z,5.63
2018-11-23T10:57:54.664Z,5.65
2018-11-23T11:00:28.786Z,5.67
2018-11-23T11:03:03.158Z,5.68
2018-11-23T11:05:36.182Z,5.70
2018-11-23T11:08:05.391Z,5.73
2018-11-23T11:10:33.877Z,5.78
2018-11-23T11:13:02.498Z,5.79
2018-11-23T11:15:34.735Z,5.81
2018-11-23T11:18:03.165Z,5.84
2018-11-23T11:20:31.637Z,5.83
2018-11-23T11:23:00.085Z,5.83
2018-11-23T11:25:28.713Z,5.83
2018-11-23T11:27:57.133Z,5.83
2018-11-23T11:30:25.621Z,5.80
2018-11-23T11:32:54.076Z,5.82
2018-11-23T11:35:22.527Z,5.83
2018-11-23T11:37:50.995Z,5.84
2018-11-23T11:40:20.033Z,5.85
2018-11-23T11:42:48.534Z,5.86
2018-11-23T11:45:18.135Z,5.89
2018-11-23T11:47:47.100Z,5.91
2018-11-23T11:50:15.735Z,5.94
2018-11-23T11:52:45.534Z,5.97
2018-11-23T11:55:15.315Z,5.97
2018-11-23T11:57:44.426Z,5.97
2018-11-23T12:00:16.866Z,5.98
2018-11-23T12:02:45.299Z,5.98
2018-11-23T12:05:14.059Z,5.99
2018-11-23T12:07:42.628Z,6.00
2018-11-23T12:10:18.730Z,6.01
2018-11-23T12:12:47.159Z,6.02
2018-11-23T12:15:16.109Z,6.04
2018-11-23T12:17:44.517Z,6.03
2018-11-23T12:20:15.184Z,6.02
2018-11-23T12:22:43.927Z,6.01
2018-11-23T12:25:12.356Z,6.00
2018-11-23T12:27:40.869Z,5.99
2018-11-23T12:30:13.227Z,5.98
2018-11-23T12:32:42.428Z,5.96
2018-11-23T12:35:12.461Z,5.96
2018-11-23T12:37:41.031Z,5.94
2018-11-23T12:40:11.434Z,5.91
2018-11-23T12:42:40.265Z,5.87
2018-11-23T12:45:11.798Z,5.81
2018-11-23T12:47:44.046Z,5.77
2018-11-23T12:50:16.865Z,5.75
2018-11-23T12:52:45.535Z,5.75
2018-11-23T12:55:14.582Z,5.72
2018-11-23T12:57:43.235Z,5.71
2018-11-23T13:00:18.915Z,5.68
2018-11-23T13:02:49.309Z,5.67
2018-11-23T13:05:18.209Z,5.68
2018-11-23T13:07:46.924Z,5.69
2018-11-23T13:10:15.807Z,5.71
2018-11-23T13:12:44.423Z,5.73
2018-11-23T13:15:12.931Z,5.73
2018-11-23T13:17:41.458Z,5.75
2018-11-23T13:20:12.504Z,5.75
2018-11-23T13:22:41.039Z,5.77
2018-11-23T13:25:15.173Z,5.75
2018-11-23T13:27:43.840Z,5.73
2018-11-23T13:30:16.350Z,5.73
2018-11-23T13:32:44.831Z,5.72
2018-11-23T13:35:15.050Z,5.71
2018-11-23T13:37:43.572Z,5.71
2018-11-23T13:40:14.899Z,5.71
2018-11-23T13:42:43.750Z,5.70
2018-11-23T13:45:13.575Z,5.72
2018-11-23T13:47:42.182Z,5.73
2018-11-23T13:50:12.782Z,5.72
2018-11-23T13:52:42.034Z,5.73
2018-11-23T13:55:10.518Z,5.73
2018-11-23T13:57:38.985Z,5.74
2018-11-23T14:00:16.701Z,5.73
2018-11-23T14:02:45.622Z,5.72
2018-11-23T14:05:15.700Z,5.73
2018-11-23T14:07:46.111Z,5.71
2018-11-23T14:10:16.823Z,5.73
2018-11-23T14:12:45.744Z,5.72
2018-11-23T14:15:15.716Z,5.70
2018-11-23T14:17:45.137Z,5.69
2018-11-23T14:20:18.129Z,5.67
2018-11-23T14:22:46.681Z,5.65
2018-11-23T14:25:16.533Z,5.61
2018-11-23T14:27:45.514Z,5.60
2018-11-23T14:30:16.828Z,5.61
2018-11-23T14:32:45.348Z,5.61
2018-11-23T14:35:16.530Z,5.59
2018-11-23T14:37:45.899Z,5.58
2018-11-23T14:40:14.694Z,5.53
2018-11-23T14:42:44.193Z,5.50
2018-11-23T14:45:16.882Z,5.45
2018-11-23T14:47:46.025Z,5.42
2018-11-23T14:50:18.346Z,5.36
2018-11-23T14:52:48.507Z,5.32
2018-11-23T14:55:21.154Z,5.29
2018-11-23T14:57:49.720Z,5.28
2018-11-23T15:00:24.626Z,5.27
2018-11-23T15:02:54.472Z,5.24
2018-11-23T15:05:22.915Z,5.23
2018-11-23T15:07:51.689Z,5.20
2018-11-23T15:10:22.427Z,5.18
2018-11-23T15:12:53.064Z,5.16
2018-11-23T15:15:23.596Z,5.14
2018-11-23T15:17:52.846Z,5.14
2018-11-23T15:20:23.742Z,5.13
2018-11-23T15:22:56.165Z,5.12
2018-11-23T15:25:24.704Z,5.12
2018-11-23T15:27:55.883Z,5.14
2018-11-23T15:30:32.864Z,5.14
2018-11-23T15:33:02.283Z,5.12
2018-11-23T15:35:32.929Z,5.04
2018-11-23T15:38:01.531Z,4.98
2018-11-23T15:40:31.003Z,4.94
2018-11-23T15:43:01.066Z,4.90
2018-11-23T15:45:30.607Z,4.86
2018-11-23T15:47:59.627Z,4.84
2018-11-23T15:50:31.591Z,4.84
2018-11-23T15:53:00.285Z,4.81
2018-11-23T15:55:31.324Z,4.76
2018-11-23T15:58:01.495Z,4.77
2018-11-23T16:00:32.267Z,4.80
2018-11-23T16:03:01.257Z,4.81
2018-11-23T16:05:29.830Z,4.82
2018-11-23T16:08:00.827Z,4.81
2018-11-23T16:10:30.712Z,4.78
2018-11-23T16:13:00.430Z,4.74
2018-11-23T16:15:29.308Z,4.72
2018-11-23T16:17:58.204Z,4.71
2018-11-23T16:20:30.160Z,4.73
2018-11-23T16:23:00.287Z,4.76
2018-11-23T16:25:28.762Z,4.80
2018-11-23T16:27:59.472Z,4.82
2018-11-23T16:30:32.565Z,4.83
2018-11-23T16:33:22.684Z,4.86
2018-11-23T16:35:51.216Z,4.88
2018-11-23T16:38:21.863Z,4.90
2018-11-23T16:40:54.017Z,4.92
2018-11-23T16:43:22.504Z,4.93
2018-11-23T16:45:51.136Z,4.94
2018-11-23T16:48:21.017Z,4.96
2018-11-23T16:50:52.706Z,4.98
2018-11-23T16:53:21.177Z,4.99
2018-11-23T16:55:49.890Z,5.00
2018-11-23T16:58:18.350Z,5.00
2018-11-23T17:00:47.558Z,4.99
2018-11-23T17:03:18.712Z,4.95
2018-11-23T17:05:48.647Z,4.88
2018-11-23T17:08:17.169Z,4.81
2018-11-23T17:10:45.634Z,4.75
2018-11-23T17:13:14.123Z,4.70
2018-11-23T17:15:42.629Z,4.64
2018-11-23T17:18:11.101Z,4.59
2018-11-23T17:20:40.262Z,4.56
2018-11-23T17:23:09.829Z,4.54
2018-11-23T17:25:38.341Z,4.52
2018-11-23T17:28:08.373Z,4.52
2018-11-23T17:30:37.324Z,4.51
2018-11-23T17:33:06.025Z,4.48
2018-11-23T17:35:34.817Z,4.47
2018-11-23T17:38:03.283Z,4.46
2018-11-23T17:40:33.752Z,4.45
2018-11-23T17:43:02.218Z,4.48
2018-11-23T17:45:31.990Z,4.50
2018-11-23T17:48:00.760Z,4.52
2018-11-23T17:50:31.026Z,4.54
2018-11-23T17:52:59.812Z,4.54
2018-11-23T17:55:28.434Z,4.54
2018-11-23T17:57:57.187Z,4.53
2018-11-23T18:00:38.840Z,4.54
2018-11-23T18:03:01.659Z,4.56
2018-11-23T18:05:30.922Z,4.58
2018-11-23T18:08:00.487Z,4.59
2018-11-23T18:10:30.257Z,4.60
2018-11-23T18:13:00.282Z,4.62
2018-11-23T18:15:30.119Z,4.65
2018-11-23T18:18:06.355Z,4.66
2018-11-23T18:20:36.564Z,4.65
2018-11-23T18:23:06.018Z,4.62
2018-11-23T18:25:38.215Z,4.61
2018-11-23T18:28:07.047Z,4.64
2018-11-23T18:30:35.562Z,4.66
2018-11-23T18:33:07.306Z,4.69
2018-11-23T18:35:35.947Z,4.71
2018-11-23T18:38:06.410Z,4.73
2018-11-23T18:40:37.410Z,4.76
2018-11-23T18:43:05.056Z,4.78
2018-11-23T18:45:38.958Z,4.80
2018-11-23T18:48:08.058Z,4.80
2018-11-23T18:50:36.538Z,4.80
2018-11-23T18:53:05.735Z,4.81
2018-11-23T18:55:34.646Z,4.81
2018-11-23T18:58:03.316Z,4.81
2018-11-23T19:00:32.213Z,4.82
2018-11-23T19:03:00.882Z,4.85
2018-11-23T19:05:31.202Z,4.87
2018-11-23T19:07:59.833Z,4.89
2018-11-23T19:10:28.346Z,4.90
2018-11-23T19:12:56.744Z,4.91
2018-11-23T19:15:25.925Z,4.93
2018-11-23T19:17:54.054Z,4.96
2018-11-23T19:20:23.382Z,4.98
2018-11-23T19:22:54.253Z,4.99
2018-11-23T19:25:22.895Z,4.97
2018-11-23T19:27:51.421Z,4.98
2018-11-23T19:30:28.139Z,4.97
2018-11-23T19:32:50.714Z,4.99
2018-11-23T19:35:19.663Z,4.98
2018-11-23T19:37:48.235Z,4.97
2018-11-23T19:40:16.710Z,4.96
2018-11-23T19:42:45.504Z,4.93
2018-11-23T19:45:15.540Z,4.96
2018-11-23T19:47:44.239Z,4.95
2018-11-23T19:50:16.371Z,4.97
2018-11-23T19:52:45.331Z,4.96
2018-11-23T19:55:15.558Z,4.99
2018-11-23T19:57:44.171Z,5.01
2018-11-23T20:00:18.763Z,5.02
2018-11-23T20:02:47.257Z,5.03
2018-11-23T20:05:15.778Z,5.02
2018-11-23T20:07:45.553Z,4.99
2018-11-23T20:10:16.510Z,4.96
2018-11-23T20:12:46.259Z,4.97
2018-11-23T20:15:18.561Z,4.93
2018-11-23T20:17:47.670Z,4.87
2018-11-23T20:20:17.025Z,4.84
2018-11-23T20:22:46.869Z,4.84
2018-11-23T20:25:18.298Z,4.86
2018-11-23T20:27:48.171Z,4.91
2018-11-23T20:30:18.046Z,4.93
2018-11-23T20:32:46.702Z,4.95
2018-11-23T20:35:20.096Z,4.97
2018-11-23T20:37:48.816Z,4.98
2018-11-23T20:40:20.927Z,4.96
2018-11-23T20:42:49.430Z,4.95
2018-11-23T20:45:18.009Z,4.94
2018-11-23T20:47:46.791Z,4.96
2018-11-23T20:50:16.622Z,4.94
2018-11-23T20:52:45.297Z,4.92
2018-11-23T20:55:16.713Z,4.91
2018-11-23T20:57:45.354Z,4.92
2018-11-23T21:00:15.291Z,4.92
2018-11-23T21:02:44.539Z,4.89
2018-11-23T21:05:14.558Z,4.87
2018-11-23T21:07:46.238Z,4.88
2018-11-23T21:10:21.613Z,4.88
2018-11-23T21:12:50.478Z,4.91
2018-11-23T21:15:30.665Z,4.92
2018-11-23T21:18:02.958Z,4.97
2018-11-23T21:20:31.584Z,5.00
2018-11-23T21:23:00.204Z,5.03
2018-11-23T21:25:29.702Z,5.07
2018-11-23T21:27:58.551Z,5.10
2018-11-23T21:30:27.009Z,5.12
2018-11-23T21:32:56.235Z,5.13
2018-11-23T21:35:25.238Z,5.15
2018-11-23T21:37:53.719Z,5.16
2018-11-23T21:40:22.215Z,5.18
2018-11-23T21:42:50.648Z,5.19
2018-11-23T21:45:20.068Z,5.20
2018-11-23T21:47:48.561Z,5.22
2018-11-23T21:50:25.016Z,5.23
2018-11-23T21:52:46.905Z,5.25
2018-11-23T21:55:19.962Z,5.30
2018-11-23T21:57:48.524Z,5.33
2018-11-23T22:00:17.064Z,5.36
2018-11-23T22:02:45.909Z,5.39
2018-11-23T22:05:14.458Z,5.39
2018-11-23T22:07:42.931Z,5.39
2018-11-23T22:10:13.264Z,5.36
2018-11-23T22:12:41.770Z,5.36
2018-11-23T22:15:15.210Z,5.37
2018-11-23T22:17:47.580Z,5.37
2018-11-23T22:20:17.672Z,5.37
2018-11-23T22:22:46.312Z,5.36
2018-11-23T22:25:16.281Z,5.35
2018-11-23T22:27:44.805Z,5.36
2018-11-23T22:30:17.069Z,5.35
2018-11-23T22:32:45.595Z,5.35
2018-11-23T22:35:14.177Z,5.35
2018-11-23T22:37:42.597Z,5.39
2018-11-23T22:40:12.833Z,5.41
2018-11-23T22:42:43.847Z,5.45
2018-11-23T22:45:13.537Z,5.47
2018-11-23T22:47:42.428Z,5.49
2018-11-23T22:50:15.541Z,5.50
2018-11-23T22:52:44.067Z,5.52
2018-11-23T22:55:13.954Z,5.53
2018-11-23T22:57:42.452Z,5.51
2018-11-23T23:00:40.199Z,5.48
2018-11-23T23:03:08.999Z,5.47
2018-11-23T23:05:37.425Z,5.41
2018-11-23T23:08:06.265Z,5.36
2018-11-23T23:10:34.682Z,5.32
2018-11-23T23:13:03.185Z,5.28
2018-11-23T23:15:31.777Z,5.21
2018-11-23T23:18:00.194Z,5.16
2018-11-23T23:20:28.763Z,5.15
2018-11-23T23:22:57.211Z,5.13
2018-11-23T23:25:25.669Z,5.15
2018-11-23T23:27:57.622Z,5.15
2018-11-23T23:30:26.139Z,5.17
2018-11-23T23:32:54.588Z,5.17
2018-11-23T23:35:23.045Z,5.19
2018-11-23T23:37:51.570Z,5.18
2018-11-23T23:40:20.031Z,5.18
2018-11-23T23:42:48.639Z,5.17
2018-11-23T23:45:17.972Z,5.19
2018-11-23T23:47:46.588Z,5.23
2018-11-23T23:50:21.595Z,5.26
2018-11-23T23:52:50.860Z,5.29
2018-11-23T23:55:19.361Z,5.33
2018-11-23T23:57:48.314Z,5.37
